Time;durP1;ratioP1;P1;durP2;ratioP2;P2;SDS_P1;SDS_P2;PMS_P1;PMS_P2;Temp;Humidity;BMP_temperature;BMP_pressure;BME280_temperature;BME280_humidity;BME280_pressure;Samples;Min_cycle;Max_cycle;Signal;HPM_P1;HPM_P2
2022/12/07 00:05:40;;;;;;;2.75;1.60;;;4.20;99.90;;;;;;20603882;28;20042;-44
2022/12/07 00:15:41;;;;;;;2.30;1.05;;;4.40;99.90;;;;;;20586760;28;20046;-44
2022/12/07 00:25:42;;;;;;;1.60;0.55;;;4.30;99.90;;;;;;20604687;28;20050;-43
2022/12/07 00:35:43;;;;;;;1.92;0.95;;;4.20;99.90;;;;;;20678231;28;20402;-44
2022/12/07 00:45:44;;;;;;;2.67;1.33;;;4.00;99.90;;;;;;20683007;28;20497;-44
2022/12/07 00:55:46;;;;;;;5.50;1.45;;;3.90;99.90;;;;;;20684731;28;20052;-44
2022/12/07 01:05:54;;;;;;;1.58;0.70;;;3.80;99.90;;;;;;20667596;28;20046;-44
2022/12/07 01:16:00;;;;;;;3.13;1.73;;;3.80;99.90;;;;;;20666493;28;20992;-44
2022/12/07 01:26:05;;;;;;;6.35;1.90;;;3.60;99.90;;;;;;20680725;28;20528;-44
2022/12/07 01:36:37;;;;;;;1.80;1.10;;;3.60;99.90;;;;;;20677100;28;21173;-43
2022/12/07 01:46:38;;;;;;;1.45;0.93;;;3.50;99.90;;;;;;20667576;28;20778;-44
2022/12/07 01:56:46;;;;;;;29.50;3.05;;;3.40;99.90;;;;;;20693766;28;20046;-44
2022/12/07 02:06:48;;;;;;;1.85;1.25;;;3.40;99.90;;;;;;20668373;28;20992;-44
2022/12/07 02:17:17;;;;;;;1.17;0.50;;;3.70;99.90;;;;;;20683548;28;20033;-43
2022/12/07 02:27:36;;;;;;;2.97;0.90;;;3.90;99.90;;;;;;20690491;28;20298;-43
2022/12/07 02:37:49;;;;;;;1.65;0.70;;;4.00;99.90;;;;;;20692195;28;20155;-44
2022/12/07 02:47:56;;;;;;;1.75;0.95;;;3.90;99.90;;;;;;20618826;28;21443;-44
2022/12/07 02:58:28;;;;;;;1.33;0.50;;;3.60;99.90;;;;;;20611155;28;20856;-44
2022/12/07 03:08:44;;;;;;;2.95;0.55;;;3.40;99.90;;;;;;20580507;28;20197;-44
2022/12/07 03:19:21;;;;;;;4.28;0.90;;;3.10;99.90;;;;;;20586037;28;20632;-44
2022/12/07 03:29:34;;;;;;;1.58;0.52;;;2.90;99.90;;;;;;20628199;28;20302;-44
2022/12/07 03:39:44;;;;;;;1.13;0.38;;;2.80;99.90;;;;;;20683057;28;20184;-44
2022/12/07 03:49:57;;;;;;;2.67;1.17;;;2.70;99.90;;;;;;20619629;28;21083;-44
2022/12/07 04:00:00;;;;;;;1.23;0.30;;;2.60;99.90;;;;;;20661272;28;23247;-44
2022/12/07 04:10:01;;;;;;;3.15;1.05;;;2.60;99.90;;;;;;20698829;28;20667;-44
2022/12/07 04:20:04;;;;;;;2.95;0.85;;;2.70;99.90;;;;;;20702562;28;20096;-43
2022/12/07 04:30:05;;;;;;;2.13;0.80;;;2.70;99.90;;;;;;20710767;28;20198;-44
2022/12/07 04:40:10;;;;;;;2.60;0.73;;;2.50;99.90;;;;;;20706511;28;20461;-44
2022/12/07 04:50:12;;;;;;;1.77;0.32;;;2.50;99.90;;;;;;20686781;28;20521;-43
2022/12/07 05:00:13;;;;;;;2.80;0.30;;;2.70;99.90;;;;;;20658865;28;20184;-44
2022/12/07 05:10:14;;;;;;;1.65;0.70;;;2.70;99.90;;;;;;20640341;28;20147;-44
2022/12/07 05:20:15;;;;;;;1.17;0.30;;;2.60;99.90;;;;;;20665390;28;20257;-43
2022/12/07 05:30:16;;;;;;;0.63;0.30;;;2.60;99.90;;;;;;20651673;28;20073;-44
2022/12/07 05:40:18;;;;;;;1.25;0.40;;;2.60;99.90;;;;;;20659621;28;20058;-44
2022/12/07 05:50:20;;;;;;;2.05;0.73;;;2.80;99.90;;;;;;20671268;28;20057;-44
2022/12/07 06:00:21;;;;;;;1.88;0.98;;;2.90;99.90;;;;;;20654472;28;20916;-43
2022/12/07 06:10:22;;;;;;;10.48;1.52;;;3.00;99.90;;;;;;20637990;28;20508;-43
2022/12/07 06:20:23;;;;;;;3.30;0.70;;;3.00;99.90;;;;;;20643782;28;20050;-44
2022/12/07 06:30:24;;;;;;;1.02;0.50;;;3.00;99.90;;;;;;20632765;28;20044;-43
2022/12/07 06:40:25;;;;;;;1.65;0.82;;;3.20;99.90;;;;;;20642944;28;20141;-44
2022/12/07 06:50:26;;;;;;;2.00;0.77;;;3.20;99.90;;;;;;20658806;28;20113;-43
2022/12/07 07:00:27;;;;;;;1.65;0.60;;;3.10;99.90;;;;;;20665917;28;20402;-44
2022/12/07 07:10:28;;;;;;;2.13;0.60;;;3.10;99.90;;;;;;20640898;28;20547;-43
2022/12/07 07:20:29;;;;;;;3.75;1.33;;;3.00;99.90;;;;;;20660804;28;20638;-43
2022/12/07 07:30:30;;;;;;;2.10;0.88;;;2.70;99.90;;;;;;20675397;28;20192;-43
2022/12/07 07:40:32;;;;;;;2.17;0.68;;;2.60;99.90;;;;;;20668851;28;20597;-44
2022/12/07 07:50:33;;;;;;;1.55;0.93;;;2.50;99.90;;;;;;20674028;28;20061;-44
2022/12/07 08:00:33;;;;;;;4.75;1.77;;;2.40;99.90;;;;;;20669048;28;22258;-43
2022/12/07 08:10:35;;;;;;;2.40;0.90;;;2.40;99.90;;;;;;20664842;28;20046;-44
2022/12/07 08:20:38;;;;;;;12.85;1.80;;;2.40;99.90;;;;;;20659102;28;20042;-43
2022/12/07 08:30:39;;;;;;;0.90;0.40;;;2.50;99.90;;;;;;20658760;28;20541;-44
2022/12/07 08:40:40;;;;;;;3.97;0.82;;;3.00;99.90;;;;;;20675985;28;20457;-43
2022/12/07 08:50:41;;;;;;;3.72;1.10;;;3.20;99.90;;;;;;20672072;28;20124;-44
2022/12/07 09:00:42;;;;;;;2.10;0.90;;;3.40;99.90;;;;;;20681568;28;20636;-43
2022/12/07 09:10:43;;;;;;;5.47;2.22;;;3.60;99.90;;;;;;20669491;28;20514;-44
2022/12/07 09:20:44;;;;;;;3.15;0.93;;;3.90;99.90;;;;;;20644052;28;20066;-43
2022/12/07 09:30:47;;;;;;;4.00;1.30;;;4.20;99.90;;;;;;20654230;28;20033;-44
2022/12/07 09:40:48;;;;;;;2.67;0.80;;;4.50;99.90;;;;;;20686168;28;20137;-42
2022/12/07 09:50:51;;;;;;;6.55;1.70;;;4.60;99.90;;;;;;20687755;28;20069;-42
2022/12/07 10:01:21;;;;;;;7.47;1.45;;;4.70;99.90;;;;;;20685625;28;20095;-41
2022/12/07 10:11:22;;;;;;;1.95;0.85;;;5.00;99.90;;;;;;20696528;28;20125;-42
2022/12/07 10:21:25;;;;;;;2.42;1.05;;;5.20;99.90;;;;;;20699319;28;20037;-42
2022/12/07 10:31:26;;;;;;;1.60;0.50;;;5.40;99.90;;;;;;20650096;28;20396;-42
2022/12/07 10:41:27;;;;;;;2.72;1.20;;;5.80;99.90;;;;;;20664257;28;20552;-42
2022/12/07 10:52:05;;;;;;;5.35;1.08;;;5.70;99.90;;;;;;20662407;28;20039;-42
2022/12/07 11:02:19;;;;;;;2.33;0.33;;;5.50;99.90;;;;;;20689550;28;20838;-42
2022/12/07 11:12:34;;;;;;;1.48;0.40;;;5.50;99.90;;;;;;20639758;28;20096;-42
2022/12/07 11:22:57;;;;;;;1.70;0.47;;;5.60;99.90;;;;;;20548918;28;20038;-42
2022/12/07 11:33:10;;;;;;;2.10;0.75;;;6.00;99.90;;;;;;20655711;28;21923;-42
2022/12/07 11:43:26;;;;;;;0.73;0.30;;;6.20;99.90;;;;;;20652332;28;20280;-42
2022/12/07 11:53:31;;;;;;;2.30;0.57;;;6.00;99.90;;;;;;20594219;28;20035;-42
2022/12/07 12:03:37;;;;;;;1.67;0.45;;;5.90;99.90;;;;;;20590323;28;20137;-42
2022/12/07 12:13:47;;;;;;;2.17;0.88;;;7.50;99.90;;;;;;20586199;28;20086;-43
2022/12/07 12:23:59;;;;;;;1.15;0.45;;;8.10;99.90;;;;;;20591323;28;20786;-42
2022/12/07 12:34:03;;;;;;;0.90;0.45;;;7.40;99.90;;;;;;20585681;28;20195;-42
2022/12/07 12:44:19;;;;;;;0.65;0.47;;;6.90;99.90;;;;;;20595054;28;20810;-42
2022/12/07 12:54:29;;;;;;;1.02;0.70;;;6.50;99.90;;;;;;20597453;28;20078;-42
2022/12/07 13:04:51;;;;;;;3.85;1.42;;;6.50;99.90;;;;;;20588005;28;20129;-42
2022/12/07 13:14:56;;;;;;;1.20;0.47;;;6.70;99.90;;;;;;20683339;28;20686;-42
2022/12/07 13:24:58;;;;;;;1.70;0.22;;;6.70;99.90;;;;;;20675234;28;21909;-41
2022/12/07 13:34:59;;;;;;;1.55;0.30;;;6.90;99.90;;;;;;20683537;28;20061;-42
2022/12/07 13:45:47;;;;;;;0.82;0.30;;;6.10;99.90;;;;;;20600097;28;20043;-42
2022/12/07 13:55:47;;;;;;;0.88;0.38;;;5.60;99.90;;;;;;20606287;28;20087;-42
2022/12/07 14:06:11;;;;;;;1.05;0.50;;;5.50;99.90;;;;;;20689033;28;20862;-42
2022/12/07 14:16:27;;;;;;;0.38;0.10;;;5.80;99.90;;;;;;20682800;28;20867;-42
2022/12/07 14:26:28;;;;;;;2.47;0.45;;;5.80;99.90;;;;;;20666529;28;20161;-43
2022/12/07 14:36:29;;;;;;;0.35;0.10;;;5.70;99.90;;;;;;20609027;28;20036;-42
2022/12/07 14:46:30;;;;;;;1.83;0.38;;;5.70;99.90;;;;;;20624533;28;20049;-42
2022/12/07 14:56:31;;;;;;;1.80;0.17;;;5.60;99.90;;;;;;20680830;28;20121;-43
2022/12/07 15:06:32;;;;;;;0.93;0.30;;;5.50;99.90;;;;;;20679183;28;20065;-42
2022/12/07 15:16:34;;;;;;;2.45;0.70;;;5.30;99.90;;;;;;20643894;28;20411;-42
2022/12/07 15:26:36;;;;;;;1.10;0.40;;;5.20;99.90;;;;;;20566144;28;20054;-41
2022/12/07 15:36:37;;;;;;;1.45;0.88;;;5.20;99.90;;;;;;20561921;28;20034;-42
2022/12/07 15:46:40;;;;;;;1.00;0.30;;;5.10;99.90;;;;;;20623312;28;20145;-42
2022/12/07 15:56:41;;;;;;;1.23;0.68;;;5.10;99.90;;;;;;20609458;28;20597;-42
2022/12/07 16:06:42;;;;;;;0.60;0.13;;;5.00;99.90;;;;;;20628901;28;20591;-42
2022/12/07 16:16:43;;;;;;;2.72;0.52;;;4.90;99.90;;;;;;20586337;28;20510;-42
2022/12/07 16:26:44;;;;;;;5.55;0.85;;;4.90;99.90;;;;;;20560174;28;20053;-42
2022/12/07 16:36:45;;;;;;;1.17;0.50;;;4.80;99.90;;;;;;20571609;28;20121;-42
2022/12/07 16:46:47;;;;;;;4.22;1.17;;;4.80;99.90;;;;;;20577569;28;20276;-42
2022/12/07 16:56:48;;;;;;;4.80;1.25;;;4.70;99.90;;;;;;20575385;28;20145;-42
2022/12/07 17:06:49;;;;;;;3.05;1.33;;;4.60;99.90;;;;;;20584567;28;20085;-42
2022/12/07 17:16:50;;;;;;;1.88;1.13;;;4.50;99.90;;;;;;20577907;28;20045;-42
2022/12/07 17:26:51;;;;;;;1.83;0.85;;;4.50;99.90;;;;;;20584327;28;20042;-43
2022/12/07 17:36:54;;;;;;;1.55;0.80;;;4.50;99.90;;;;;;20573243;28;20054;-42
2022/12/07 17:47:01;;;;;;;2.30;0.40;;;4.60;99.90;;;;;;20664781;28;21196;-42
2022/12/07 17:57:02;;;;;;;2.13;1.10;;;4.50;99.90;;;;;;20659662;28;20871;-43
2022/12/07 18:07:05;;;;;;;3.85;1.27;;;4.60;99.90;;;;;;20675669;28;20572;-44
2022/12/07 18:17:06;;;;;;;3.60;1.08;;;4.60;99.90;;;;;;20657586;28;20077;-43
2022/12/07 18:27:08;;;;;;;3.85;2.33;;;4.60;99.90;;;;;;20619782;28;20133;-43
2022/12/07 18:37:09;;;;;;;3.15;1.15;;;4.50;99.90;;;;;;20644922;28;20234;-44
2022/12/07 18:47:10;;;;;;;3.22;1.50;;;4.50;99.90;;;;;;20643079;28;20046;-43
2022/12/07 18:57:11;;;;;;;2.92;1.15;;;4.50;99.90;;;;;;20651280;28;20483;-42
2022/12/07 19:07:12;;;;;;;1.80;1.10;;;4.50;99.90;;;;;;20603804;28;20394;-43
2022/12/07 19:17:13;;;;;;;3.92;1.35;;;4.50;99.90;;;;;;20585548;28;20132;-43
2022/12/07 19:27:15;;;;;;;6.05;2.75;;;4.50;99.90;;;;;;20591584;28;20038;-43
2022/12/07 19:37:17;;;;;;;5.90;2.00;;;4.50;99.90;;;;;;20569182;28;20449;-43
2022/12/07 19:47:18;;;;;;;2.60;1.25;;;4.50;99.90;;;;;;20593867;28;20062;-42
2022/12/07 19:57:18;;;;;;;1.55;0.60;;;4.50;99.90;;;;;;20597926;28;20075;-43
2022/12/07 20:07:20;;;;;;;1.55;0.88;;;4.50;99.90;;;;;;20616176;28;20050;-43
2022/12/07 20:17:21;;;;;;;2.95;1.17;;;4.50;99.90;;;;;;20598223;28;20243;-43
2022/12/07 20:27:22;;;;;;;2.38;1.00;;;4.40;99.90;;;;;;20576920;28;20077;-43
2022/12/07 20:37:23;;;;;;;1.75;0.93;;;4.40;99.90;;;;;;20590552;28;20527;-43
2022/12/07 20:47:24;;;;;;;4.60;1.95;;;4.30;99.90;;;;;;20594991;28;20050;-43
2022/12/07 20:57:25;;;;;;;4.53;1.88;;;4.30;99.90;;;;;;20599519;28;20146;-43
2022/12/07 21:07:26;;;;;;;4.38;1.45;;;4.20;99.90;;;;;;20592386;28;20295;-43
2022/12/07 21:17:28;;;;;;;2.72;1.45;;;4.20;99.90;;;;;;20601138;28;20062;-43
2022/12/07 21:27:28;;;;;;;6.30;1.95;;;4.20;99.90;;;;;;20634628;28;20156;-43
2022/12/07 21:37:29;;;;;;;2.42;1.05;;;4.20;99.90;;;;;;20606259;28;20098;-42
2022/12/07 21:47:31;;;;;;;3.95;1.38;;;4.20;99.90;;;;;;20597520;28;20039;-43
2022/12/07 21:57:32;;;;;;;3.05;1.05;;;4.20;99.90;;;;;;20590979;28;20072;-43
2022/12/07 22:07:33;;;;;;;2.55;1.17;;;4.10;99.90;;;;;;20593029;28;20525;-43
2022/12/07 22:17:35;;;;;;;2.38;0.80;;;4.10;99.90;;;;;;20588771;28;20035;-43
2022/12/07 22:27:36;;;;;;;4.05;1.15;;;4.10;99.90;;;;;;20608510;28;20109;-43
2022/12/07 22:37:37;;;;;;;1.52;0.85;;;4.20;99.90;;;;;;20588628;28;20412;-43
2022/12/07 22:47:39;;;;;;;1.17;0.50;;;4.20;99.90;;;;;;20588907;28;20064;-43
2022/12/07 22:57:40;;;;;;;3.00;0.40;;;4.30;99.90;;;;;;20590200;28;20065;-43
2022/12/07 23:07:41;;;;;;;1.15;0.60;;;4.40;99.90;;;;;;20580733;28;20058;-43
2022/12/07 23:17:43;;;;;;;1.60;0.82;;;4.40;99.90;;;;;;20585584;28;20169;-43
2022/12/07 23:27:44;;;;;;;1.63;0.98;;;4.50;99.90;;;;;;20584508;28;20117;-42
2022/12/07 23:37:45;;;;;;;3.22;0.98;;;4.40;99.90;;;;;;20587221;28;20226;-43
2022/12/07 23:47:46;;;;;;;2.55;1.15;;;4.30;99.90;;;;;;20586556;28;20039;-43
2022/12/07 23:57:47;;;;;;;2.40;1.02;;;4.30;99.90;;;;;;20583063;28;20043;-42
